Kralendijk, Netherlands Antilles
Current Conditions -  °F | °C
As of 12:00 PM on Wednesday 26 Nov 2014 (Local Time) from TNCC Reporting Station
Few Clouds Few Clouds  
Wind Chill: 86°   Ceiling: Unl
Heat Index: 95°   Visibility: 6mi
Dew Point: 75°   Wind: 14mph
Humidity: 70%   Direction: 100°E
Pressure: 29.91"   Gusts: NA
Location:  12.15°N, 68.28°W
Report Text: TNCC 261600Z 10012KT 9999 FEW021 30/24 Q1013 NOSIG
Loading
Personal Weather Stations






























Interactive Weather Map New forecast layout! Learn more

10-Day Weather Forecast

Advertisements
Track Severe Weather on mobile